sensor_id;sensor_type;location;lat;lon;timestamp;P1;durP1;ratioP1;P2;durP2;ratioP2
84311;SDS011;74490;52.148;7.940;2024-03-02T00:02:11;4.10;;;1.73;;
84311;SDS011;74490;52.148;7.940;2024-03-02T00:04:36;5.13;;;1.65;;
84311;SDS011;74490;52.148;7.940;2024-03-02T00:07:02;4.20;;;1.90;;
84311;SDS011;74490;52.148;7.940;2024-03-02T00:09:27;4.03;;;1.85;;
84311;SDS011;74490;52.148;7.940;2024-03-02T00:11:53;2.33;;;1.27;;
84311;SDS011;74490;52.148;7.940;2024-03-02T00:14:18;4.53;;;1.42;;
84311;SDS011;74490;52.148;7.940;2024-03-02T00:16:44;4.50;;;1.50;;
84311;SDS011;74490;52.148;7.940;2024-03-02T00:19:09;3.92;;;1.73;;
84311;SDS011;74490;52.148;7.940;2024-03-02T00:21:34;4.95;;;1.80;;
84311;SDS011;74490;52.148;7.940;2024-03-02T00:24:00;3.55;;;1.50;;
84311;SDS011;74490;52.148;7.940;2024-03-02T00:26:27;4.25;;;1.38;;
84311;SDS011;74490;52.148;7.940;2024-03-02T00:28:54;3.38;;;1.58;;
84311;SDS011;74490;52.148;7.940;2024-03-02T00:31:21;3.67;;;1.60;;
84311;SDS011;74490;52.148;7.940;2024-03-02T00:33:47;5.80;;;1.60;;
84311;SDS011;74490;52.148;7.940;2024-03-02T00:36:13;2.67;;;1.33;;
84311;SDS011;74490;52.148;7.940;2024-03-02T00:38:44;2.90;;;1.30;;
84311;SDS011;74490;52.148;7.940;2024-03-02T00:41:11;8.30;;;1.52;;
84311;SDS011;74490;52.148;7.940;2024-03-02T00:43:43;4.65;;;1.50;;
84311;SDS011;74490;52.148;7.940;2024-03-02T00:46:10;5.82;;;1.38;;
84311;SDS011;74490;52.148;7.940;2024-03-02T00:48:38;3.70;;;1.50;;
84311;SDS011;74490;52.148;7.940;2024-03-02T00:51:04;4.65;;;1.30;;
84311;SDS011;74490;52.148;7.940;2024-03-02T00:53:29;3.00;;;1.40;;
84311;SDS011;74490;52.148;7.940;2024-03-02T00:55:54;3.00;;;1.10;;
84311;SDS011;74490;52.148;7.940;2024-03-02T00:58:20;4.63;;;1.88;;
84311;SDS011;74490;52.148;7.940;2024-03-02T01:00:45;2.80;;;1.40;;
84311;SDS011;74490;52.148;7.940;2024-03-02T01:03:10;3.10;;;1.40;;
84311;SDS011;74490;52.148;7.940;2024-03-02T01:05:35;3.08;;;1.30;;
84311;SDS011;74490;52.148;7.940;2024-03-02T01:08:01;3.45;;;1.30;;
84311;SDS011;74490;52.148;7.940;2024-03-02T01:10:26;4.53;;;1.63;;
84311;SDS011;74490;52.148;7.940;2024-03-02T01:12:51;7.15;;;1.30;;
84311;SDS011;74490;52.148;7.940;2024-03-02T01:15:16;2.40;;;1.30;;
84311;SDS011;74490;52.148;7.940;2024-03-02T01:17:42;3.80;;;1.50;;
84311;SDS011;74490;52.148;7.940;2024-03-02T01:20:08;2.60;;;1.33;;
84311;SDS011;74490;52.148;7.940;2024-03-02T01:22:33;4.20;;;1.70;;
84311;SDS011;74490;52.148;7.940;2024-03-02T01:24:58;3.08;;;1.33;;
84311;SDS011;74490;52.148;7.940;2024-03-02T01:27:23;1.63;;;1.00;;
84311;SDS011;74490;52.148;7.940;2024-03-02T01:29:48;2.95;;;1.30;;
84311;SDS011;74490;52.148;7.940;2024-03-02T01:32:14;3.15;;;1.65;;
84311;SDS011;74490;52.148;7.940;2024-03-02T01:34:39;4.60;;;1.50;;
84311;SDS011;74490;52.148;7.940;2024-03-02T01:37:04;2.45;;;1.25;;
84311;SDS011;74490;52.148;7.940;2024-03-02T01:39:29;3.42;;;1.20;;
84311;SDS011;74490;52.148;7.940;2024-03-02T01:41:55;3.03;;;1.25;;
84311;SDS011;74490;52.148;7.940;2024-03-02T01:44:20;3.03;;;1.20;;
84311;SDS011;74490;52.148;7.940;2024-03-02T01:46:45;3.00;;;1.40;;
84311;SDS011;74490;52.148;7.940;2024-03-02T01:49:10;3.25;;;1.50;;
84311;SDS011;74490;52.148;7.940;2024-03-02T01:51:35;5.30;;;1.40;;
84311;SDS011;74490;52.148;7.940;2024-03-02T01:54:01;2.17;;;1.10;;
84311;SDS011;74490;52.148;7.940;2024-03-02T01:56:26;4.35;;;1.38;;
84311;SDS011;74490;52.148;7.940;2024-03-02T01:58:51;4.28;;;1.50;;
84311;SDS011;74490;52.148;7.940;2024-03-02T02:01:16;4.22;;;1.50;;
84311;SDS011;74490;52.148;7.940;2024-03-02T02:03:41;2.88;;;1.20;;
84311;SDS011;74490;52.148;7.940;2024-03-02T02:06:07;2.03;;;1.15;;
84311;SDS011;74490;52.148;7.940;2024-03-02T02:08:33;3.95;;;1.40;;
84311;SDS011;74490;52.148;7.940;2024-03-02T02:10:58;3.00;;;1.20;;
84311;SDS011;74490;52.148;7.940;2024-03-02T02:13:23;2.78;;;1.40;;
84311;SDS011;74490;52.148;7.940;2024-03-02T02:15:49;3.00;;;1.35;;
84311;SDS011;74490;52.148;7.940;2024-03-02T02:18:15;3.08;;;1.20;;
84311;SDS011;74490;52.148;7.940;2024-03-02T02:20:40;2.20;;;1.10;;
84311;SDS011;74490;52.148;7.940;2024-03-02T02:23:05;3.35;;;1.30;;
84311;SDS011;74490;52.148;7.940;2024-03-02T02:25:32;2.38;;;1.15;;
84311;SDS011;74490;52.148;7.940;2024-03-02T02:27:58;2.60;;;1.30;;
84311;SDS011;74490;52.148;7.940;2024-03-02T02:30:27;1.70;;;1.00;;
84311;SDS011;74490;52.148;7.940;2024-03-02T02:32:52;2.70;;;1.27;;
84311;SDS011;74490;52.148;7.940;2024-03-02T02:35:18;2.58;;;1.30;;
84311;SDS011;74490;52.148;7.940;2024-03-02T02:37:43;3.00;;;1.10;;
84311;SDS011;74490;52.148;7.940;2024-03-02T02:40:09;2.33;;;1.17;;
84311;SDS011;74490;52.148;7.940;2024-03-02T02:42:34;3.25;;;1.30;;
84311;SDS011;74490;52.148;7.940;2024-03-02T02:44:59;2.28;;;1.40;;
84311;SDS011;74490;52.148;7.940;2024-03-02T02:47:25;4.00;;;1.40;;
84311;SDS011;74490;52.148;7.940;2024-03-02T02:49:50;3.58;;;1.38;;
84311;SDS011;74490;52.148;7.940;2024-03-02T02:52:15;1.83;;;1.23;;
84311;SDS011;74490;52.148;7.940;2024-03-02T02:54:41;3.17;;;1.20;;
84311;SDS011;74490;52.148;7.940;2024-03-02T02:57:06;2.05;;;0.90;;
84311;SDS011;74490;52.148;7.940;2024-03-02T02:59:31;2.17;;;1.30;;
84311;SDS011;74490;52.148;7.940;2024-03-02T03:01:57;3.22;;;1.10;;
84311;SDS011;74490;52.148;7.940;2024-03-02T03:04:22;2.30;;;1.00;;
84311;SDS011;74490;52.148;7.940;2024-03-02T03:06:47;2.03;;;1.10;;
84311;SDS011;74490;52.148;7.940;2024-03-02T03:09:12;4.13;;;1.13;;
84311;SDS011;74490;52.148;7.940;2024-03-02T03:11:37;1.45;;;1.02;;
84311;SDS011;74490;52.148;7.940;2024-03-02T03:14:02;2.00;;;1.10;;
84311;SDS011;74490;52.148;7.940;2024-03-02T03:16:29;2.25;;;1.20;;
84311;SDS011;74490;52.148;7.940;2024-03-02T03:18:55;2.78;;;1.30;;
84311;SDS011;74490;52.148;7.940;2024-03-02T03:21:20;2.05;;;1.02;;
84311;SDS011;74490;52.148;7.940;2024-03-02T03:23:46;1.80;;;1.10;;
84311;SDS011;74490;52.148;7.940;2024-03-02T03:26:11;2.20;;;1.23;;
84311;SDS011;74490;52.148;7.940;2024-03-02T03:28:36;2.05;;;1.15;;
84311;SDS011;74490;52.148;7.940;2024-03-02T03:31:01;3.67;;;1.20;;
84311;SDS011;74490;52.148;7.940;2024-03-02T03:33:27;2.30;;;0.95;;
84311;SDS011;74490;52.148;7.940;2024-03-02T03:35:52;1.70;;;1.13;;
84311;SDS011;74490;52.148;7.940;2024-03-02T03:38:18;1.50;;;0.82;;
84311;SDS011;74490;52.148;7.940;2024-03-02T03:40:43;2.83;;;1.27;;
84311;SDS011;74490;52.148;7.940;2024-03-02T03:43:09;2.63;;;1.10;;
84311;SDS011;74490;52.148;7.940;2024-03-02T03:45:35;2.10;;;0.90;;
84311;SDS011;74490;52.148;7.940;2024-03-02T03:48:00;1.30;;;0.85;;
84311;SDS011;74490;52.148;7.940;2024-03-02T03:50:25;1.10;;;0.90;;
84311;SDS011;74490;52.148;7.940;2024-03-02T03:52:50;1.65;;;1.05;;
84311;SDS011;74490;52.148;7.940;2024-03-02T03:55:15;2.00;;;1.08;;
84311;SDS011;74490;52.148;7.940;2024-03-02T03:57:41;2.00;;;0.90;;
84311;SDS011;74490;52.148;7.940;2024-03-02T04:00:06;1.90;;;1.10;;
84311;SDS011;74490;52.148;7.940;2024-03-02T04:02:31;2.42;;;0.80;;
84311;SDS011;74490;52.148;7.940;2024-03-02T04:04:57;2.42;;;0.95;;
84311;SDS011;74490;52.148;7.940;2024-03-02T04:07:22;2.17;;;0.90;;
84311;SDS011;74490;52.148;7.940;2024-03-02T04:09:47;1.60;;;1.00;;
84311;SDS011;74490;52.148;7.940;2024-03-02T04:12:12;1.75;;;1.10;;
84311;SDS011;74490;52.148;7.940;2024-03-02T04:14:38;2.05;;;1.15;;
84311;SDS011;74490;52.148;7.940;2024-03-02T04:17:03;1.70;;;0.90;;
84311;SDS011;74490;52.148;7.940;2024-03-02T04:19:28;2.80;;;0.82;;
84311;SDS011;74490;52.148;7.940;2024-03-02T04:21:54;1.73;;;1.10;;
84311;SDS011;74490;52.148;7.940;2024-03-02T04:24:19;2.13;;;0.82;;
84311;SDS011;74490;52.148;7.940;2024-03-02T04:26:44;2.08;;;1.17;;
84311;SDS011;74490;52.148;7.940;2024-03-02T04:29:09;2.65;;;0.90;;
84311;SDS011;74490;52.148;7.940;2024-03-02T04:31:34;3.65;;;1.13;;
84311;SDS011;74490;52.148;7.940;2024-03-02T04:33:59;1.25;;;0.80;;
84311;SDS011;74490;52.148;7.940;2024-03-02T04:36:25;1.08;;;0.80;;
84311;SDS011;74490;52.148;7.940;2024-03-02T04:38:50;1.83;;;1.08;;
84311;SDS011;74490;52.148;7.940;2024-03-02T04:41:15;1.83;;;0.90;;
84311;SDS011;74490;52.148;7.940;2024-03-02T04:43:41;2.17;;;1.10;;
84311;SDS011;74490;52.148;7.940;2024-03-02T04:46:06;1.20;;;0.80;;
84311;SDS011;74490;52.148;7.940;2024-03-02T04:48:32;2.15;;;1.00;;
84311;SDS011;74490;52.148;7.940;2024-03-02T04:50:57;1.77;;;0.90;;
84311;SDS011;74490;52.148;7.940;2024-03-02T04:53:22;2.58;;;1.02;;
84311;SDS011;74490;52.148;7.940;2024-03-02T04:55:47;1.65;;;1.00;;
84311;SDS011;74490;52.148;7.940;2024-03-02T04:58:31;1.45;;;0.82;;
84311;SDS011;74490;52.148;7.940;2024-03-02T05:00:56;1.55;;;0.95;;
84311;SDS011;74490;52.148;7.940;2024-03-02T05:03:21;1.55;;;0.80;;
84311;SDS011;74490;52.148;7.940;2024-03-02T05:05:47;1.23;;;0.90;;
84311;SDS011;74490;52.148;7.940;2024-03-02T05:08:12;1.48;;;1.00;;
84311;SDS011;74490;52.148;7.940;2024-03-02T05:10:38;0.98;;;0.68;;
84311;SDS011;74490;52.148;7.940;2024-03-02T05:13:03;1.40;;;0.90;;
84311;SDS011;74490;52.148;7.940;2024-03-02T05:15:28;1.85;;;1.00;;
84311;SDS011;74490;52.148;7.940;2024-03-02T05:17:53;1.38;;;0.80;;
84311;SDS011;74490;52.148;7.940;2024-03-02T05:20:19;1.85;;;1.00;;
84311;SDS011;74490;52.148;7.940;2024-03-02T05:22:44;1.70;;;0.65;;
84311;SDS011;74490;52.148;7.940;2024-03-02T05:25:09;1.52;;;0.77;;
84311;SDS011;74490;52.148;7.940;2024-03-02T05:27:37;1.90;;;0.80;;
84311;SDS011;74490;52.148;7.940;2024-03-02T05:30:02;1.52;;;0.80;;
84311;SDS011;74490;52.148;7.940;2024-03-02T05:32:28;2.05;;;0.80;;
84311;SDS011;74490;52.148;7.940;2024-03-02T05:34:54;1.48;;;0.75;;
84311;SDS011;74490;52.148;7.940;2024-03-02T05:37:20;1.17;;;0.88;;
84311;SDS011;74490;52.148;7.940;2024-03-02T05:39:45;1.13;;;0.70;;
84311;SDS011;74490;52.148;7.940;2024-03-02T05:42:10;1.52;;;1.02;;
84311;SDS011;74490;52.148;7.940;2024-03-02T05:44:36;1.10;;;0.70;;
84311;SDS011;74490;52.148;7.940;2024-03-02T05:47:01;1.60;;;0.90;;
84311;SDS011;74490;52.148;7.940;2024-03-02T05:49:26;1.55;;;0.93;;
84311;SDS011;74490;52.148;7.940;2024-03-02T05:51:51;1.33;;;0.80;;
84311;SDS011;74490;52.148;7.940;2024-03-02T05:54:16;1.88;;;0.90;;
84311;SDS011;74490;52.148;7.940;2024-03-02T05:56:42;1.55;;;0.90;;
84311;SDS011;74490;52.148;7.940;2024-03-02T05:59:07;1.63;;;0.82;;
84311;SDS011;74490;52.148;7.940;2024-03-02T06:01:41;1.77;;;0.90;;
84311;SDS011;74490;52.148;7.940;2024-03-02T06:04:07;1.38;;;0.90;;
84311;SDS011;74490;52.148;7.940;2024-03-02T06:06:33;1.13;;;0.65;;
84311;SDS011;74490;52.148;7.940;2024-03-02T06:08:59;1.88;;;0.90;;
84311;SDS011;74490;52.148;7.940;2024-03-02T06:11:24;2.00;;;0.70;;
84311;SDS011;74490;52.148;7.940;2024-03-02T06:13:50;2.90;;;0.98;;
84311;SDS011;74490;52.148;7.940;2024-03-02T06:16:15;1.17;;;0.80;;
84311;SDS011;74490;52.148;7.940;2024-03-02T06:18:40;1.20;;;0.70;;
84311;SDS011;74490;52.148;7.940;2024-03-02T06:21:05;2.35;;;0.90;;
84311;SDS011;74490;52.148;7.940;2024-03-02T06:23:30;2.05;;;0.90;;
84311;SDS011;74490;52.148;7.940;2024-03-02T06:25:56;3.10;;;1.00;;
84311;SDS011;74490;52.148;7.940;2024-03-02T06:28:21;2.50;;;1.15;;
84311;SDS011;74490;52.148;7.940;2024-03-02T06:30:46;1.40;;;0.93;;
84311;SDS011;74490;52.148;7.940;2024-03-02T06:33:12;2.00;;;0.98;;
84311;SDS011;74490;52.148;7.940;2024-03-02T06:35:37;3.20;;;1.17;;
84311;SDS011;74490;52.148;7.940;2024-03-02T06:38:02;1.63;;;1.05;;
84311;SDS011;74490;52.148;7.940;2024-03-02T06:40:28;4.05;;;1.30;;
84311;SDS011;74490;52.148;7.940;2024-03-02T06:42:53;5.22;;;1.10;;
84311;SDS011;74490;52.148;7.940;2024-03-02T06:45:18;3.95;;;1.40;;
84311;SDS011;74490;52.148;7.940;2024-03-02T06:47:43;4.60;;;1.13;;
84311;SDS011;74490;52.148;7.940;2024-03-02T06:50:09;3.75;;;1.15;;
84311;SDS011;74490;52.148;7.940;2024-03-02T06:52:34;5.10;;;1.20;;
84311;SDS011;74490;52.148;7.940;2024-03-02T06:54:59;6.35;;;1.05;;
84311;SDS011;74490;52.148;7.940;2024-03-02T06:57:25;5.10;;;1.20;;
84311;SDS011;74490;52.148;7.940;2024-03-02T06:59:50;3.92;;;1.10;;
84311;SDS011;74490;52.148;7.940;2024-03-02T07:02:16;5.35;;;1.27;;
84311;SDS011;74490;52.148;7.940;2024-03-02T07:04:41;5.40;;;1.10;;
84311;SDS011;74490;52.148;7.940;2024-03-02T07:07:07;5.05;;;1.35;;
84311;SDS011;74490;52.148;7.940;2024-03-02T07:09:32;3.22;;;1.13;;
84311;SDS011;74490;52.148;7.940;2024-03-02T07:11:57;2.78;;;1.38;;
84311;SDS011;74490;52.148;7.940;2024-03-02T07:14:23;4.43;;;1.00;;
84311;SDS011;74490;52.148;7.940;2024-03-02T07:17:08;1.90;;;1.05;;
84311;SDS011;74490;52.148;7.940;2024-03-02T07:19:33;3.83;;;1.10;;
84311;SDS011;74490;52.148;7.940;2024-03-02T07:22:07;3.65;;;1.33;;
84311;SDS011;74490;52.148;7.940;2024-03-02T07:24:39;2.90;;;1.02;;
84311;SDS011;74490;52.148;7.940;2024-03-02T07:27:05;4.47;;;1.13;;
84311;SDS011;74490;52.148;7.940;2024-03-02T07:29:31;2.95;;;1.33;;
84311;SDS011;74490;52.148;7.940;2024-03-02T07:31:56;4.20;;;1.20;;
84311;SDS011;74490;52.148;7.940;2024-03-02T07:34:21;7.32;;;1.20;;
84311;SDS011;74490;52.148;7.940;2024-03-02T07:36:46;6.97;;;1.10;;
84311;SDS011;74490;52.148;7.940;2024-03-02T07:39:12;3.25;;;1.20;;
84311;SDS011;74490;52.148;7.940;2024-03-02T07:41:37;2.03;;;0.98;;
84311;SDS011;74490;52.148;7.940;2024-03-02T07:44:02;4.85;;;1.05;;
84311;SDS011;74490;52.148;7.940;2024-03-02T07:46:27;2.95;;;1.10;;
84311;SDS011;74490;52.148;7.940;2024-03-02T07:48:52;3.20;;;1.15;;
84311;SDS011;74490;52.148;7.940;2024-03-02T07:51:17;1.70;;;0.98;;
84311;SDS011;74490;52.148;7.940;2024-03-02T07:53:43;6.07;;;1.50;;
84311;SDS011;74490;52.148;7.940;2024-03-02T07:56:08;6.47;;;1.27;;
84311;SDS011;74490;52.148;7.940;2024-03-02T07:58:33;7.07;;;1.40;;
84311;SDS011;74490;52.148;7.940;2024-03-02T08:01:00;2.22;;;1.20;;
84311;SDS011;74490;52.148;7.940;2024-03-02T08:03:26;4.55;;;1.80;;
84311;SDS011;74490;52.148;7.940;2024-03-02T08:05:51;12.63;;;1.80;;
84311;SDS011;74490;52.148;7.940;2024-03-02T08:08:16;6.97;;;1.75;;
84311;SDS011;74490;52.148;7.940;2024-03-02T08:10:41;7.10;;;1.55;;
84311;SDS011;74490;52.148;7.940;2024-03-02T08:13:06;3.38;;;1.50;;
84311;SDS011;74490;52.148;7.940;2024-03-02T08:15:32;7.72;;;1.90;;
84311;SDS011;74490;52.148;7.940;2024-03-02T08:17:57;4.25;;;1.80;;
84311;SDS011;74490;52.148;7.940;2024-03-02T08:20:22;7.65;;;1.65;;
84311;SDS011;74490;52.148;7.940;2024-03-02T08:22:47;9.60;;;1.92;;
84311;SDS011;74490;52.148;7.940;2024-03-02T08:25:12;8.70;;;1.75;;
84311;SDS011;74490;52.148;7.940;2024-03-02T08:27:39;4.45;;;1.90;;
84311;SDS011;74490;52.148;7.940;2024-03-02T08:30:04;6.95;;;1.77;;
84311;SDS011;74490;52.148;7.940;2024-03-02T08:32:31;5.03;;;1.83;;
84311;SDS011;74490;52.148;7.940;2024-03-02T08:34:56;5.60;;;2.33;;
84311;SDS011;74490;52.148;7.940;2024-03-02T08:37:21;9.15;;;2.45;;
84311;SDS011;74490;52.148;7.940;2024-03-02T08:39:47;8.77;;;2.80;;
84311;SDS011;74490;52.148;7.940;2024-03-02T08:42:12;11.30;;;2.58;;
84311;SDS011;74490;52.148;7.940;2024-03-02T08:44:39;9.18;;;2.63;;
84311;SDS011;74490;52.148;7.940;2024-03-02T08:47:05;9.55;;;4.20;;
84311;SDS011;74490;52.148;7.940;2024-03-02T08:49:30;8.02;;;5.20;;
84311;SDS011;74490;52.148;7.940;2024-03-02T08:51:55;10.13;;;4.95;;
84311;SDS011;74490;52.148;7.940;2024-03-02T08:54:21;12.43;;;5.57;;
84311;SDS011;74490;52.148;7.940;2024-03-02T08:56:47;11.43;;;5.32;;
84311;SDS011;74490;52.148;7.940;2024-03-02T08:59:12;8.23;;;5.50;;
84311;SDS011;74490;52.148;7.940;2024-03-02T09:01:37;12.60;;;5.53;;
84311;SDS011;74490;52.148;7.940;2024-03-02T09:04:06;11.35;;;6.25;;
84311;SDS011;74490;52.148;7.940;2024-03-02T09:06:32;13.40;;;5.72;;
84311;SDS011;74490;52.148;7.940;2024-03-02T09:08:57;7.28;;;5.38;;
84311;SDS011;74490;52.148;7.940;2024-03-02T09:11:22;9.40;;;4.90;;
84311;SDS011;74490;52.148;7.940;2024-03-02T09:13:48;10.82;;;4.53;;
84311;SDS011;74490;52.148;7.940;2024-03-02T09:16:13;9.68;;;4.00;;
84311;SDS011;74490;52.148;7.940;2024-03-02T09:18:39;12.02;;;4.10;;
84311;SDS011;74490;52.148;7.940;2024-03-02T09:21:04;10.63;;;4.53;;
84311;SDS011;74490;52.148;7.940;2024-03-02T09:23:29;8.15;;;3.92;;
84311;SDS011;74490;52.148;7.940;2024-03-02T09:25:54;8.23;;;3.95;;
84311;SDS011;74490;52.148;7.940;2024-03-02T09:28:23;7.18;;;4.10;;
84311;SDS011;74490;52.148;7.940;2024-03-02T09:30:48;10.27;;;4.10;;
84311;SDS011;74490;52.148;7.940;2024-03-02T09:33:19;10.23;;;3.92;;
84311;SDS011;74490;52.148;7.940;2024-03-02T09:35:51;9.98;;;4.20;;
84311;SDS011;74490;52.148;7.940;2024-03-02T09:38:16;8.88;;;4.13;;
84311;SDS011;74490;52.148;7.940;2024-03-02T09:40:42;10.13;;;3.83;;
84311;SDS011;74490;52.148;7.940;2024-03-02T09:43:07;14.77;;;3.60;;
84311;SDS011;74490;52.148;7.940;2024-03-02T09:45:36;10.80;;;3.72;;
84311;SDS011;74490;52.148;7.940;2024-03-02T09:48:02;11.23;;;3.78;;
84311;SDS011;74490;52.148;7.940;2024-03-02T09:50:27;9.40;;;3.70;;
84311;SDS011;74490;52.148;7.940;2024-03-02T09:53:10;11.65;;;3.38;;
84311;SDS011;74490;52.148;7.940;2024-03-02T09:55:39;12.98;;;3.67;;
84311;SDS011;74490;52.148;7.940;2024-03-02T09:58:08;14.77;;;3.97;;
84311;SDS011;74490;52.148;7.940;2024-03-02T10:00:34;18.38;;;4.15;;
84311;SDS011;74490;52.148;7.940;2024-03-02T10:02:59;21.80;;;3.92;;
84311;SDS011;74490;52.148;7.940;2024-03-02T10:05:25;25.73;;;4.47;;
84311;SDS011;74490;52.148;7.940;2024-03-02T10:07:58;18.85;;;4.75;;
84311;SDS011;74490;52.148;7.940;2024-03-02T10:10:24;20.45;;;4.60;;
84311;SDS011;74490;52.148;7.940;2024-03-02T10:13:00;15.98;;;4.40;;
84311;SDS011;74490;52.148;7.940;2024-03-02T10:15:28;17.70;;;4.93;;
84311;SDS011;74490;52.148;7.940;2024-03-02T10:17:53;27.35;;;4.60;;
84311;SDS011;74490;52.148;7.940;2024-03-02T10:20:25;22.80;;;4.80;;
84311;SDS011;74490;52.148;7.940;2024-03-02T10:22:51;14.65;;;4.13;;
84311;SDS011;74490;52.148;7.940;2024-03-02T10:25:29;17.88;;;4.82;;
84311;SDS011;74490;52.148;7.940;2024-03-02T10:27:56;20.92;;;4.38;;
84311;SDS011;74490;52.148;7.940;2024-03-02T10:30:21;16.45;;;4.28;;
84311;SDS011;74490;52.148;7.940;2024-03-02T10:32:48;8.88;;;3.75;;
84311;SDS011;74490;52.148;7.940;2024-03-02T10:35:14;10.73;;;3.33;;
84311;SDS011;74490;52.148;7.940;2024-03-02T10:37:42;18.55;;;4.25;;
84311;SDS011;74490;52.148;7.940;2024-03-02T10:40:09;10.00;;;3.53;;
84311;SDS011;74490;52.148;7.940;2024-03-02T10:42:41;19.10;;;4.50;;
84311;SDS011;74490;52.148;7.940;2024-03-02T10:45:06;16.50;;;4.80;;
84311;SDS011;74490;52.148;7.940;2024-03-02T10:47:33;19.73;;;3.90;;
84311;SDS011;74490;52.148;7.940;2024-03-02T10:50:00;23.33;;;4.13;;
84311;SDS011;74490;52.148;7.940;2024-03-02T10:52:26;14.18;;;3.88;;
84311;SDS011;74490;52.148;7.940;2024-03-02T10:54:54;12.43;;;3.40;;
84311;SDS011;74490;52.148;7.940;2024-03-02T10:57:20;14.75;;;3.38;;
84311;SDS011;74490;52.148;7.940;2024-03-02T10:59:53;14.25;;;3.70;;
84311;SDS011;74490;52.148;7.940;2024-03-02T11:02:22;16.95;;;3.70;;
84311;SDS011;74490;52.148;7.940;2024-03-02T11:04:49;10.40;;;3.45;;
84311;SDS011;74490;52.148;7.940;2024-03-02T11:07:18;9.45;;;3.30;;
84311;SDS011;74490;52.148;7.940;2024-03-02T11:09:59;13.05;;;3.50;;
84311;SDS011;74490;52.148;7.940;2024-03-02T11:12:35;10.65;;;3.65;;
84311;SDS011;74490;52.148;7.940;2024-03-02T11:15:02;16.98;;;3.50;;
84311;SDS011;74490;52.148;7.940;2024-03-02T11:17:28;11.77;;;2.83;;
84311;SDS011;74490;52.148;7.940;2024-03-02T11:19:54;14.57;;;3.30;;
84311;SDS011;74490;52.148;7.940;2024-03-02T11:22:22;11.55;;;2.83;;
84311;SDS011;74490;52.148;7.940;2024-03-02T11:24:50;15.95;;;4.00;;
84311;SDS011;74490;52.148;7.940;2024-03-02T11:27:20;20.92;;;3.67;;
84311;SDS011;74490;52.148;7.940;2024-03-02T11:30:01;15.13;;;3.83;;
84311;SDS011;74490;52.148;7.940;2024-03-02T11:32:29;20.92;;;4.28;;
84311;SDS011;74490;52.148;7.940;2024-03-02T11:34:54;22.98;;;4.10;;
84311;SDS011;74490;52.148;7.940;2024-03-02T11:37:20;16.83;;;3.78;;
84311;SDS011;74490;52.148;7.940;2024-03-02T11:39:46;16.15;;;3.22;;
84311;SDS011;74490;52.148;7.940;2024-03-02T11:42:12;14.43;;;3.95;;
84311;SDS011;74490;52.148;7.940;2024-03-02T11:44:39;12.55;;;3.47;;
84311;SDS011;74490;52.148;7.940;2024-03-02T11:47:10;25.48;;;3.85;;
84311;SDS011;74490;52.148;7.940;2024-03-02T11:49:36;23.15;;;4.32;;
84311;SDS011;74490;52.148;7.940;2024-03-02T11:52:08;17.80;;;3.47;;
84311;SDS011;74490;52.148;7.940;2024-03-02T11:54:34;10.23;;;3.17;;
84311;SDS011;74490;52.148;7.940;2024-03-02T11:57:01;15.27;;;3.60;;
84311;SDS011;74490;52.148;7.940;2024-03-02T11:59:27;17.50;;;3.60;;
84311;SDS011;74490;52.148;7.940;2024-03-02T12:01:53;18.17;;;3.55;;
84311;SDS011;74490;52.148;7.940;2024-03-02T12:04:18;16.10;;;3.10;;
84311;SDS011;74490;52.148;7.940;2024-03-02T12:06:44;17.52;;;3.35;;
84311;SDS011;74490;52.148;7.940;2024-03-02T12:09:11;21.02;;;3.72;;
84311;SDS011;74490;52.148;7.940;2024-03-02T12:11:37;24.55;;;4.00;;
84311;SDS011;74490;52.148;7.940;2024-03-02T12:14:02;19.17;;;4.20;;
84311;SDS011;74490;52.148;7.940;2024-03-02T12:16:29;19.98;;;4.15;;
84311;SDS011;74490;52.148;7.940;2024-03-02T12:18:54;14.80;;;3.58;;
84311;SDS011;74490;52.148;7.940;2024-03-02T12:21:20;19.73;;;3.72;;
84311;SDS011;74490;52.148;7.940;2024-03-02T12:23:45;12.02;;;3.30;;
84311;SDS011;74490;52.148;7.940;2024-03-02T12:26:10;20.17;;;3.35;;
84311;SDS011;74490;52.148;7.940;2024-03-02T12:28:35;17.60;;;3.40;;
84311;SDS011;74490;52.148;7.940;2024-03-02T12:31:01;21.27;;;4.03;;
84311;SDS011;74490;52.148;7.940;2024-03-02T12:33:26;20.48;;;4.38;;
84311;SDS011;74490;52.148;7.940;2024-03-02T12:35:52;19.75;;;3.20;;
84311;SDS011;74490;52.148;7.940;2024-03-02T12:38:19;19.48;;;3.92;;
84311;SDS011;74490;52.148;7.940;2024-03-02T12:40:47;21.52;;;3.85;;
84311;SDS011;74490;52.148;7.940;2024-03-02T12:43:12;19.55;;;4.25;;
84311;SDS011;74490;52.148;7.940;2024-03-02T12:45:37;31.48;;;4.82;;
84311;SDS011;74490;52.148;7.940;2024-03-02T12:48:04;37.67;;;5.63;;
84311;SDS011;74490;52.148;7.940;2024-03-02T12:50:30;42.90;;;6.22;;
84311;SDS011;74490;52.148;7.940;2024-03-02T12:52:55;33.50;;;4.28;;
84311;SDS011;74490;52.148;7.940;2024-03-02T12:55:21;24.67;;;4.18;;
84311;SDS011;74490;52.148;7.940;2024-03-02T12:57:47;34.30;;;5.40;;
84311;SDS011;74490;52.148;7.940;2024-03-02T13:00:17;27.63;;;5.13;;
84311;SDS011;74490;52.148;7.940;2024-03-02T13:02:51;41.40;;;5.55;;
84311;SDS011;74490;52.148;7.940;2024-03-02T13:05:20;46.78;;;5.90;;
84311;SDS011;74490;52.148;7.940;2024-03-02T13:07:48;32.53;;;5.63;;
84311;SDS011;74490;52.148;7.940;2024-03-02T13:10:14;37.42;;;5.53;;
84311;SDS011;74490;52.148;7.940;2024-03-02T13:12:39;27.27;;;4.43;;
84311;SDS011;74490;52.148;7.940;2024-03-02T13:15:05;27.58;;;4.95;;
84311;SDS011;74490;52.148;7.940;2024-03-02T13:17:30;25.85;;;4.40;;
84311;SDS011;74490;52.148;7.940;2024-03-02T13:19:58;28.67;;;4.85;;
84311;SDS011;74490;52.148;7.940;2024-03-02T13:22:24;26.23;;;4.78;;
84311;SDS011;74490;52.148;7.940;2024-03-02T13:24:50;34.35;;;4.80;;
84311;SDS011;74490;52.148;7.940;2024-03-02T13:27:16;29.33;;;4.72;;
84311;SDS011;74490;52.148;7.940;2024-03-02T13:29:42;17.48;;;4.22;;
84311;SDS011;74490;52.148;7.940;2024-03-02T13:32:16;24.95;;;4.20;;
84311;SDS011;74490;52.148;7.940;2024-03-02T13:34:42;20.50;;;4.18;;
84311;SDS011;74490;52.148;7.940;2024-03-02T13:37:07;20.75;;;4.28;;
84311;SDS011;74490;52.148;7.940;2024-03-02T13:39:37;20.55;;;3.70;;
84311;SDS011;74490;52.148;7.940;2024-03-02T13:42:10;18.85;;;3.75;;
84311;SDS011;74490;52.148;7.940;2024-03-02T13:44:38;19.35;;;3.33;;
84311;SDS011;74490;52.148;7.940;2024-03-02T13:47:04;19.70;;;3.47;;
84311;SDS011;74490;52.148;7.940;2024-03-02T13:49:30;20.00;;;4.10;;
84311;SDS011;74490;52.148;7.940;2024-03-02T13:52:08;19.70;;;3.33;;
84311;SDS011;74490;52.148;7.940;2024-03-02T13:54:45;13.73;;;3.38;;
84311;SDS011;74490;52.148;7.940;2024-03-02T13:57:10;21.50;;;3.70;;
84311;SDS011;74490;52.148;7.940;2024-03-02T13:59:39;13.95;;;3.15;;
84311;SDS011;74490;52.148;7.940;2024-03-02T14:02:04;21.13;;;3.22;;
84311;SDS011;74490;52.148;7.940;2024-03-02T14:04:34;16.17;;;3.10;;
84311;SDS011;74490;52.148;7.940;2024-03-02T14:07:00;14.38;;;3.05;;
84311;SDS011;74490;52.148;7.940;2024-03-02T14:09:25;13.43;;;2.97;;
84311;SDS011;74490;52.148;7.940;2024-03-02T14:11:51;15.57;;;3.17;;
84311;SDS011;74490;52.148;7.940;2024-03-02T14:14:17;14.00;;;2.97;;
84311;SDS011;74490;52.148;7.940;2024-03-02T14:16:42;16.05;;;3.00;;
84311;SDS011;74490;52.148;7.940;2024-03-02T14:19:07;14.60;;;3.03;;
84311;SDS011;74490;52.148;7.940;2024-03-02T14:21:34;14.40;;;3.13;;
84311;SDS011;74490;52.148;7.940;2024-03-02T14:24:03;12.88;;;2.83;;
84311;SDS011;74490;52.148;7.940;2024-03-02T14:26:28;11.38;;;2.55;;
84311;SDS011;74490;52.148;7.940;2024-03-02T14:29:14;9.45;;;2.50;;
84311;SDS011;74490;52.148;7.940;2024-03-02T14:31:40;7.07;;;2.30;;
84311;SDS011;74490;52.148;7.940;2024-03-02T14:34:05;16.02;;;3.08;;
84311;SDS011;74490;52.148;7.940;2024-03-02T14:36:31;9.60;;;2.60;;
84311;SDS011;74490;52.148;7.940;2024-03-02T14:38:56;13.02;;;2.70;;